TimeCDT,TemperatureF,Dew PointF,Humidity,Sea Level PressureIn,VisibilityMPH,Wind Direction,Wind SpeedMPH,Gust SpeedMPH,PrecipitationIn,Events,Conditions,WindDirDegrees,DateUTC
12:15 AM,82.6,74.1,75,30.00,7.0,SE,10.4,-,N/A,,Clear,130,2013-06-22 05:15:00
12:35 AM,82.2,74.3,77,30.00,7.0,SE,8.1,-,N/A,,Clear,130,2013-06-22 05:35:00
12:55 AM,81.7,74.3,78,30.00,7.0,SE,6.9,-,N/A,,Clear,140,2013-06-22 05:55:00
1:15 AM,81.5,74.5,79,29.99,7.0,SE,6.9,-,N/A,,Clear,140,2013-06-22 06:15:00
1:35 AM,81.1,74.7,81,30.00,7.0,SE,6.9,-,N/A,,Clear,140,2013-06-22 06:35:00
1:55 AM,80.8,74.7,82,30.00,7.0,SE,5.8,-,N/A,,Clear,140,2013-06-22 06:55:00
2:15 AM,80.4,74.7,83,29.99,7.0,SE,5.8,-,N/A,,Clear,140,2013-06-22 07:15:00
2:35 AM,80.1,74.7,83,30.00,7.0,SE,4.6,-,N/A,,Clear,130,2013-06-22 07:35:00
2:55 AM,79.9,74.8,85,30.00,7.0,SE,4.6,-,N/A,,Clear,140,2013-06-22 07:55:00
3:15 AM,79.9,74.8,85,30.00,7.0,SE,4.6,-,N/A,,Clear,140,2013-06-22 08:15:00
3:35 AM,79.7,75.0,86,29.99,7.0,SE,5.8,-,N/A,,Scattered Clouds,140,2013-06-22 08:35:00
3:55 AM,79.9,75.4,86,29.99,7.0,SSE,5.8,-,N/A,,Mostly Cloudy,150,2013-06-22 08:55:00
4:15 AM,80.8,75.9,85,29.99,7.0,SE,3.5,-,N/A,,Overcast,140,2013-06-22 09:15:00
4:35 AM,81.0,75.9,85,29.99,7.0,SSE,5.8,-,N/A,,Overcast,150,2013-06-22 09:35:00
4:55 AM,80.6,75.7,85,29.99,7.0,SE,5.8,-,N/A,,Mostly Cloudy,140,2013-06-22 09:55:00
5:15 AM,80.1,75.7,87,29.99,5.0,SE,6.9,-,N/A,,Scattered Clouds,140,2013-06-22 10:15:00
5:35 AM,79.7,75.4,87,29.99,5.0,SE,4.6,-,N/A,,Haze,140,2013-06-22 10:35:00
5:55 AM,79.3,75.4,88,29.99,5.0,SE,5.8,-,N/A,,Clear,140,2013-06-22 10:55:00
6:15 AM,79.0,75.2,88,29.99,5.0,NNE,4.6,-,N/A,,Clear,20,2013-06-22 11:15:00
6:35 AM,78.8,75.2,89,29.98,5.0,SSE,5.8,-,N/A,,Clear,150,2013-06-22 11:35:00
6:55 AM,78.8,75.2,89,29.98,5.0,SSE,5.8,-,N/A,,Clear,150,2013-06-22 11:55:00
7:15 AM,79.0,75.0,88,29.98,5.0,SE,4.6,-,N/A,,Clear,140,2013-06-22 12:15:00
7:35 AM,79.5,74.5,84,29.98,7.0,SSE,5.8,-,N/A,,Clear,150,2013-06-22 12:35:00
7:55 AM,80.6,73.8,80,29.99,7.0,SSE,8.1,-,N/A,,Clear,160,2013-06-22 12:55:00
8:15 AM,81.9,73.2,75,29.99,10.0,SSE,11.5,-,N/A,,Clear,160,2013-06-22 13:15:00
8:35 AM,82.8,73.0,72,29.99,10.0,SSE,9.2,-,N/A,,Clear,160,2013-06-22 13:35:00
8:55 AM,83.8,72.5,69,30.00,10.0,SSE,11.5,-,N/A,,Clear,160,2013-06-22 13:55:00
9:15 AM,85.1,72.1,65,30.01,10.0,SSE,13.8,19.6,N/A,,Clear,160,2013-06-22 14:15:00
9:35 AM,85.5,71.8,63,30.01,7.0,SSE,13.8,19.6,N/A,,Clear,160,2013-06-22 14:35:00
9:55 AM,86.9,71.1,59,30.01,5.0,SSE,15.0,-,N/A,,Haze,150,2013-06-22 14:55:00
10:15 AM,87.8,70.2,56,30.01,5.0,SSE,13.8,20.7,N/A,,Haze,150,2013-06-22 15:15:00
10:35 AM,89.4,68.5,50,30.01,4.0,SSE,15.0,23.0,N/A,,Haze,150,2013-06-22 15:35:00
10:55 AM,89.8,68.4,49,30.01,5.0,SSE,18.4,23.0,N/A,,Haze,150,2013-06-22 15:55:00
11:15 AM,91.2,68.0,46,30.01,5.0,SSE,15.0,21.9,N/A,,Haze,150,2013-06-22 16:15:00
11:35 AM,91.9,66.7,43,30.02,5.0,SSE,16.1,23.0,N/A,,Haze,160,2013-06-22 16:35:00
11:55 AM,93.2,66.6,41,30.01,5.0,SE,18.4,21.9,N/A,,Haze,140,2013-06-22 16:55:00
12:15 PM,94.3,65.5,39,30.00,5.0,SE,18.4,21.9,N/A,,Haze,130,2013-06-22 17:15:00
12:35 PM,94.6,65.8,39,30.00,7.0,SSE,15.0,20.7,N/A,,Clear,160,2013-06-22 17:35:00
12:55 PM,95.0,63.9,36,30.00,7.0,SSE,12.7,20.7,N/A,,Scattered Clouds,160,2013-06-22 17:55:00
1:15 PM,95.0,62.1,33,29.99,5.0,South,15.0,23.0,N/A,,Haze,170,2013-06-22 18:15:00
1:55 PM,96.8,61.7,31,29.98,4.0,SSE,16.1,20.7,N/A,,Haze,150,2013-06-22 18:55:00
2:15 PM,97.3,61.3,30,29.97,5.0,SSE,15.0,23.0,N/A,,Haze,150,2013-06-22 19:15:00
2:35 PM,97.9,61.2,30,29.96,5.0,SE,16.1,26.5,N/A,,Haze,130,2013-06-22 19:35:00
2:55 PM,98.1,61.0,29,29.96,7.0,SSE,13.8,24.2,N/A,,Clear,160,2013-06-22 19:55:00
3:15 PM,98.1,59.4,28,29.95,5.0,SSE,16.1,-,N/A,,Haze,150,2013-06-22 20:15:00
3:35 PM,98.4,58.8,27,29.94,5.0,SE,13.8,28.8,N/A,,Haze,140,2013-06-22 20:35:00
3:55 PM,98.6,62.2,30,29.93,7.0,SE,15.0,24.2,N/A,,Scattered Clouds,140,2013-06-22 20:55:00
4:15 PM,97.9,62.6,31,29.92,4.0,SSE,12.7,21.9,N/A,,Haze,150,2013-06-22 21:15:00
4:35 PM,97.9,60.8,29,29.91,5.0,SE,17.3,25.3,N/A,,Haze,140,2013-06-22 21:35:00
4:55 PM,97.7,61.5,30,29.91,5.0,SE,17.3,23.0,N/A,,Haze,140,2013-06-22 21:55:00
5:15 PM,97.3,62.6,32,29.90,5.0,SE,17.3,23.0,N/A,,Haze,130,2013-06-22 22:15:00
5:35 PM,96.8,61.9,31,29.90,5.0,SE,18.4,27.6,N/A,,Haze,140,2013-06-22 22:35:00
5:55 PM,96.4,59.4,29,29.90,5.0,SE,12.7,-,N/A,,Haze,140,2013-06-22 22:55:00
6:15 PM,95.9,58.3,28,29.89,5.0,SSE,15.0,-,N/A,,Haze,150,2013-06-22 23:15:00
6:35 PM,95.5,60.6,31,29.89,7.0,SSE,12.7,21.9,N/A,,Clear,150,2013-06-22 23:35:00
6:55 PM,94.3,61.0,33,29.89,7.0,SE,19.6,23.0,N/A,,Clear,140,2013-06-22 23:55:00
7:15 PM,93.6,63.9,37,29.89,5.0,SE,19.6,23.0,N/A,,Haze,130,2013-06-23 00:15:00
7:35 PM,92.1,64.4,40,29.90,5.0,SE,13.8,23.0,N/A,,Haze,140,2013-06-23 00:35:00
7:55 PM,91.0,65.1,42,29.90,5.0,SE,17.3,20.7,N/A,,Haze,140,2013-06-23 00:55:00
8:15 PM,89.6,64.6,43,29.90,7.0,SE,15.0,21.9,N/A,,Clear,140,2013-06-23 01:15:00
8:35 PM,88.7,64.6,45,29.90,5.0,SE,15.0,-,N/A,,Haze,130,2013-06-23 01:35:00
8:55 PM,87.4,65.5,48,29.91,7.0,SE,12.7,-,N/A,,Clear,130,2013-06-23 01:55:00
9:15 PM,86.5,66.2,51,29.92,7.0,SE,11.5,-,N/A,,Clear,130,2013-06-23 02:15:00
9:35 PM,86.0,66.6,52,29.93,10.0,SE,12.7,-,N/A,,Clear,130,2013-06-23 02:35:00
9:55 PM,84.9,67.6,56,29.93,7.0,SE,11.5,-,N/A,,Clear,130,2013-06-23 02:55:00
10:15 PM,83.8,68.4,59,29.94,7.0,SE,11.5,-,N/A,,Clear,130,2013-06-23 03:15:00
10:35 PM,83.3,69.1,62,29.95,7.0,SE,11.5,-,N/A,,Clear,130,2013-06-23 03:35:00
10:55 PM,82.4,69.8,66,29.96,5.0,SE,9.2,-,N/A,,Haze,140,2013-06-23 03:55:00
11:15 PM,81.9,70.2,68,29.97,7.0,SE,11.5,-,N/A,,Clear,130,2013-06-23 04:15:00
11:35 PM,81.5,71.1,70,29.97,7.0,SE,10.4,-,N/A,,Clear,140,2013-06-23 04:35:00
11:55 PM,80.8,71.6,73,29.97,7.0,SSE,8.1,-,N/A,,Clear,150,2013-06-23 04:55:00